Time;durP1;ratioP1;P1;durP2;ratioP2;P2;SDS_P1;SDS_P2;PMS_P1;PMS_P2;Temp;Humidity;BMP_temperature;BMP_pressure;BME280_temperature;BME280_humidity;BME280_pressure;Samples;Min_cycle;Max_cycle;Signal;HPM_P1;HPM_P2
2021/11/25 00:00:31;;;;;;;77.63;24.10;;;2.60;99.90;;;;;;5028257;28;20029;-89
2021/11/25 00:02:57;;;;;;;177.95;24.05;;;2.50;99.90;;;;;;5035169;28;20036;-89
2021/11/25 00:05:23;;;;;;;73.53;22.98;;;2.40;99.90;;;;;;5028713;28;20473;-90
2021/11/25 00:07:48;;;;;;;93.85;25.13;;;2.30;99.90;;;;;;5035497;28;20029;-89
2021/11/25 00:10:14;;;;;;;89.40;24.60;;;2.30;99.90;;;;;;5031993;28;20052;-90
2021/11/25 00:12:40;;;;;;;78.03;23.17;;;2.30;99.90;;;;;;5026215;28;20120;-90
2021/11/25 00:15:07;;;;;;;108.97;28.65;;;2.30;99.90;;;;;;5039587;28;20056;-91
2021/11/25 00:17:33;;;;;;;62.47;21.85;;;2.40;99.90;;;;;;5037958;28;20396;-89
2021/11/25 00:19:59;;;;;;;78.03;21.67;;;2.40;99.90;;;;;;5034405;28;20017;-90
2021/11/25 00:22:25;;;;;;;153.10;24.90;;;2.40;99.90;;;;;;5032755;28;20032;-89
2021/11/25 00:24:51;;;;;;;335.65;28.40;;;2.50;99.90;;;;;;5033415;28;20032;-89
2021/11/25 00:27:16;;;;;;;100.28;22.10;;;2.40;99.90;;;;;;5028923;28;20029;-90
2021/11/25 00:29:42;;;;;;;291.63;27.13;;;2.50;99.90;;;;;;5034702;28;20021;-90
2021/11/25 00:32:07;;;;;;;291.85;30.38;;;2.50;99.90;;;;;;5032914;28;20021;-90
2021/11/25 00:34:33;;;;;;;143.52;25.73;;;2.40;99.90;;;;;;5046521;28;20041;-90
2021/11/25 00:36:59;;;;;;;115.03;24.83;;;2.40;99.90;;;;;;5034860;28;20025;-90
2021/11/25 00:39:24;;;;;;;183.85;26.83;;;2.40;99.90;;;;;;5032969;28;20068;-89
2021/11/25 00:41:50;;;;;;;135.18;23.58;;;2.40;99.90;;;;;;5032688;28;20457;-90
2021/11/25 00:44:16;;;;;;;158.57;23.92;;;2.40;99.90;;;;;;5043890;28;20033;-89
2021/11/25 00:46:42;;;;;;;100.15;17.65;;;2.30;99.90;;;;;;5030586;28;20025;-89
2021/11/25 00:49:09;;;;;;;120.57;19.90;;;2.20;99.90;;;;;;5035760;28;20036;-89
2021/11/25 00:51:35;;;;;;;156.75;22.10;;;2.20;99.90;;;;;;5034627;28;20027;-90
2021/11/25 00:54:00;;;;;;;179.13;21.48;;;2.20;99.90;;;;;;5034331;28;20071;-89
2021/11/25 00:56:26;;;;;;;113.63;20.52;;;2.10;99.90;;;;;;5030898;28;20469;-90
2021/11/25 00:58:52;;;;;;;92.45;20.10;;;2.10;99.90;;;;;;5028704;28;20481;-90
2021/11/25 01:01:17;;;;;;;75.30;20.15;;;2.10;99.90;;;;;;5030809;28;20017;-91
2021/11/25 01:03:43;;;;;;;75.00;19.00;;;2.10;99.90;;;;;;5034895;28;20044;-91
2021/11/25 01:06:08;;;;;;;101.80;19.83;;;2.10;99.90;;;;;;5029439;28;20026;-90
2021/11/25 01:08:34;;;;;;;89.85;19.38;;;2.00;99.90;;;;;;5029109;28;20033;-90
2021/11/25 01:11:01;;;;;;;64.88;20.25;;;1.90;99.90;;;;;;5032539;28;20052;-90
2021/11/25 01:13:27;;;;;;;48.90;16.65;;;2.00;99.90;;;;;;5033485;28;20067;-90
2021/11/25 01:15:53;;;;;;;98.03;17.80;;;1.90;99.90;;;;;;5032200;28;20029;-90
2021/11/25 01:18:19;;;;;;;40.83;16.30;;;1.80;99.90;;;;;;5015556;28;20114;-90
2021/11/25 01:20:47;;;;;;;37.10;17.05;;;1.80;99.90;;;;;;5024789;28;20025;-89
2021/11/25 01:23:17;;;;;;;34.47;16.88;;;1.80;99.90;;;;;;5022596;28;20033;-90
2021/11/25 01:25:44;;;;;;;33.97;16.45;;;1.80;99.90;;;;;;5030556;28;20032;-90
2021/11/25 01:28:12;;;;;;;32.92;16.73;;;1.90;99.90;;;;;;5034372;28;20040;-90
2021/11/25 01:30:43;;;;;;;32.22;17.83;;;2.00;99.90;;;;;;5046400;28;20381;-90
2021/11/25 01:33:09;;;;;;;33.05;16.88;;;2.00;99.90;;;;;;5037364;28;20519;-90
2021/11/25 01:35:36;;;;;;;32.38;16.88;;;2.10;99.90;;;;;;5046762;28;20025;-89
2021/11/25 01:38:03;;;;;;;32.95;17.33;;;2.10;99.90;;;;;;5035231;28;20664;-91
2021/11/25 01:40:29;;;;;;;44.30;20.17;;;2.20;99.90;;;;;;5034670;28;20029;-90
2021/11/25 01:42:54;;;;;;;39.38;19.60;;;2.30;99.90;;;;;;5034015;28;20113;-90
2021/11/25 01:45:24;;;;;;;67.70;24.67;;;2.30;99.90;;;;;;5034819;28;20021;-90
2021/11/25 01:47:49;;;;;;;73.05;26.50;;;2.40;99.90;;;;;;5032854;28;20026;-90
2021/11/25 01:50:16;;;;;;;67.18;27.13;;;2.40;99.90;;;;;;5037957;28;20048;-90
2021/11/25 01:52:42;;;;;;;62.65;27.58;;;2.50;99.90;;;;;;5036875;28;20396;-90
2021/11/25 01:55:09;;;;;;;69.45;27.77;;;2.60;99.90;;;;;;5054794;28;20090;-90
2021/11/25 01:57:35;;;;;;;69.28;27.58;;;2.60;99.90;;;;;;5037076;28;20025;-89
2021/11/25 02:00:01;;;;;;;71.75;28.75;;;2.60;99.90;;;;;;5036304;28;20491;-89
2021/11/25 02:02:26;;;;;;;55.88;24.38;;;2.70;99.90;;;;;;5035007;28;20116;-89
2021/11/25 02:04:52;;;;;;;47.85;21.85;;;2.70;99.90;;;;;;5032813;28;20163;-90
2021/11/25 02:07:17;;;;;;;43.42;20.95;;;2.80;99.90;;;;;;5032343;28;20025;-89
2021/11/25 02:09:44;;;;;;;65.07;27.27;;;2.70;99.90;;;;;;5027339;28;20060;-91
2021/11/25 02:12:09;;;;;;;62.25;28.20;;;2.70;99.90;;;;;;5038143;28;20021;-90
2021/11/25 02:14:35;;;;;;;56.38;24.55;;;2.70;99.90;;;;;;5031477;28;20037;-91
2021/11/25 02:17:01;;;;;;;51.90;22.73;;;2.70;99.90;;;;;;5028626;28;20469;-90
2021/11/25 02:19:28;;;;;;;51.65;22.92;;;2.70;99.90;;;;;;5051562;28;20147;-90
2021/11/25 02:21:53;;;;;;;43.28;19.50;;;2.70;99.90;;;;;;5054210;28;20029;-90
2021/11/25 02:24:19;;;;;;;43.58;18.90;;;2.70;99.90;;;;;;5022081;28;20036;-88
2021/11/25 02:26:44;;;;;;;34.00;16.48;;;2.70;99.90;;;;;;5036678;28;20086;-89
2021/11/25 02:29:10;;;;;;;33.45;16.55;;;2.60;99.90;;;;;;5036083;28;20025;-89
2021/11/25 02:31:35;;;;;;;46.47;19.20;;;2.60;99.90;;;;;;5054041;28;20045;-89
2021/11/25 02:34:01;;;;;;;45.50;20.70;;;2.60;99.90;;;;;;5033782;28;20036;-90
2021/11/25 02:36:27;;;;;;;43.97;20.30;;;2.60;99.90;;;;;;5036250;28;20043;-88
2021/11/25 02:38:53;;;;;;;50.65;22.92;;;2.60;99.90;;;;;;5021615;28;20037;-89
2021/11/25 02:41:18;;;;;;;47.88;22.33;;;2.60;99.90;;;;;;5034221;28;20049;-89
2021/11/25 02:43:44;;;;;;;46.08;21.33;;;2.60;99.90;;;;;;5030587;28;20031;-90
2021/11/25 02:46:13;;;;;;;47.10;21.42;;;2.60;99.90;;;;;;5033663;28;20496;-90
2021/11/25 02:48:46;;;;;;;58.15;25.05;;;2.60;99.90;;;;;;5036435;28;20485;-90
2021/11/25 02:51:14;;;;;;;55.58;24.05;;;2.60;99.90;;;;;;5036385;28;20385;-90
2021/11/25 02:53:40;;;;;;;48.35;23.30;;;2.70;99.90;;;;;;5035199;28;20045;-90
2021/11/25 02:56:09;;;;;;;54.53;24.80;;;2.60;99.90;;;;;;5036687;28;20477;-91
2021/11/25 02:58:35;;;;;;;56.60;24.10;;;2.70;99.90;;;;;;5034743;28;20063;-90
2021/11/25 03:01:21;;;;;;;50.42;22.05;;;2.60;99.90;;;;;;5035938;28;20033;-90
2021/11/25 03:03:47;;;;;;;64.30;26.95;;;2.70;99.90;;;;;;5034506;28;20053;-90
2021/11/25 03:06:13;;;;;;;60.50;26.48;;;2.60;99.90;;;;;;5019867;28;20036;-90
2021/11/25 03:08:39;;;;;;;61.80;27.05;;;2.70;99.90;;;;;;5026476;28;20539;-89
2021/11/25 03:11:08;;;;;;;61.83;28.38;;;2.60;99.90;;;;;;5034163;28;20031;-90
2021/11/25 03:13:36;;;;;;;56.88;25.70;;;2.70;99.90;;;;;;5035782;28;20476;-90
2021/11/25 03:16:02;;;;;;;58.08;25.67;;;2.70;99.90;;;;;;5047648;28;20040;-89
2021/11/25 03:18:29;;;;;;;57.45;26.13;;;2.70;99.90;;;;;;5039332;28;20029;-90
2021/11/25 03:20:55;;;;;;;61.03;27.38;;;2.70;99.90;;;;;;5038241;28;20480;-90
2021/11/25 03:23:25;;;;;;;60.50;24.27;;;2.80;99.90;;;;;;5030594;28;20032;-90
2021/11/25 03:25:51;;;;;;;58.42;25.38;;;2.70;99.90;;;;;;5046686;28;20105;-90
2021/11/25 03:28:17;;;;;;;61.88;26.25;;;2.80;99.90;;;;;;5035803;28;20025;-88
2021/11/25 03:30:43;;;;;;;59.92;26.52;;;2.80;99.90;;;;;;5034686;28;20044;-89
2021/11/25 03:33:10;;;;;;;57.03;25.27;;;2.80;99.90;;;;;;5051111;28;20037;-90
2021/11/25 03:35:38;;;;;;;62.90;26.35;;;2.90;99.90;;;;;;5030444;28;20041;-90
2021/11/25 03:38:04;;;;;;;58.22;25.08;;;2.90;99.90;;;;;;5028661;28;20048;-90
2021/11/25 03:40:30;;;;;;;63.15;27.35;;;2.90;99.90;;;;;;5031816;28;20067;-89
2021/11/25 03:42:56;;;;;;;63.08;26.45;;;3.00;99.90;;;;;;5024156;28;20076;-90
2021/11/25 03:45:21;;;;;;;62.03;28.25;;;3.00;99.90;;;;;;5027097;28;20044;-89
2021/11/25 03:47:47;;;;;;;55.58;26.20;;;3.00;99.90;;;;;;5030644;28;20488;-90
2021/11/25 03:50:13;;;;;;;65.30;29.17;;;3.00;99.90;;;;;;5026509;28;20082;-90
2021/11/25 03:52:39;;;;;;;70.85;29.98;;;3.10;99.90;;;;;;5051227;28;20037;-90
2021/11/25 03:55:07;;;;;;;62.75;30.58;;;3.10;99.90;;;;;;5027559;28;20079;-90
2021/11/25 03:57:32;;;;;;;65.50;30.05;;;3.10;99.90;;;;;;5031536;28;20032;-91
2021/11/25 03:59:58;;;;;;;65.35;28.17;;;3.10;99.90;;;;;;5034783;28;20029;-90
2021/11/25 04:02:24;;;;;;;63.30;29.85;;;3.10;99.90;;;;;;5034750;28;20029;-90
2021/11/25 04:04:50;;;;;;;68.43;31.33;;;3.20;99.90;;;;;;5023823;28;20018;-90
2021/11/25 04:07:16;;;;;;;65.63;29.17;;;3.20;99.90;;;;;;5033864;28;20032;-90
2021/11/25 04:09:41;;;;;;;62.53;28.90;;;3.30;99.90;;;;;;5034152;28;20029;-90
2021/11/25 04:12:07;;;;;;;69.47;31.17;;;3.20;99.90;;;;;;5036289;28;20032;-90
2021/11/25 04:14:33;;;;;;;64.07;31.02;;;3.30;99.90;;;;;;5030061;28;20056;-90
2021/11/25 04:16:59;;;;;;;70.78;31.20;;;3.30;99.90;;;;;;5034411;28;20406;-91
2021/11/25 04:19:26;;;;;;;72.40;31.00;;;3.30;99.90;;;;;;5035169;28;20112;-90
2021/11/25 04:21:51;;;;;;;66.45;30.63;;;3.30;99.90;;;;;;5035952;28;20125;-90
2021/11/25 04:24:17;;;;;;;72.25;31.52;;;3.30;99.90;;;;;;5028264;28;20112;-90
2021/11/25 04:26:42;;;;;;;66.97;30.50;;;3.30;99.90;;;;;;5034346;28;20039;-90
2021/11/25 04:29:09;;;;;;;58.47;29.92;;;3.40;99.90;;;;;;5031314;28;20037;-90
2021/11/25 04:37:03;;;;;;;68.43;33.00;;;3.40;99.90;;;;;;5051684;28;20116;-90
2021/11/25 04:39:29;;;;;;;73.35;33.38;;;3.40;99.90;;;;;;5029706;28;20112;-90
2021/11/25 04:41:54;;;;;;;72.80;33.58;;;3.40;99.90;;;;;;5046080;28;20497;-90
2021/11/25 04:44:20;;;;;;;63.63;30.33;;;3.40;99.90;;;;;;5031865;28;20366;-90
2021/11/25 04:46:46;;;;;;;69.55;31.90;;;3.40;99.90;;;;;;5033679;28;20373;-90
2021/11/25 04:49:12;;;;;;;73.63;33.80;;;3.50;99.90;;;;;;5021392;28;20505;-90
2021/11/25 04:51:38;;;;;;;71.15;34.40;;;3.50;99.90;;;;;;5033904;28;20025;-90
2021/11/25 04:54:05;;;;;;;66.63;32.50;;;3.40;99.90;;;;;;5026249;28;20037;-90
2021/11/25 04:56:30;;;;;;;70.03;32.67;;;3.40;99.90;;;;;;5038192;28;20030;-90
2021/11/25 04:58:56;;;;;;;70.78;31.60;;;3.40;99.90;;;;;;5036811;28;20100;-89
2021/11/25 05:01:22;;;;;;;75.40;34.30;;;3.40;99.90;;;;;;5035887;28;20017;-90
2021/11/25 05:03:47;;;;;;;67.80;33.10;;;3.30;99.90;;;;;;5055877;28;20025;-90
2021/11/25 05:06:13;;;;;;;72.22;34.65;;;3.30;99.90;;;;;;5033423;28;20060;-90
2021/11/25 05:08:39;;;;;;;72.43;33.15;;;3.30;99.90;;;;;;5038066;28;20037;-89
2021/11/25 05:11:05;;;;;;;73.40;34.05;;;3.30;99.90;;;;;;5031339;28;20021;-89
2021/11/25 05:13:30;;;;;;;72.07;33.53;;;3.30;99.90;;;;;;5037371;28;20048;-90
2021/11/25 05:15:56;;;;;;;69.85;32.65;;;3.30;99.90;;;;;;5037435;28;20028;-89
2021/11/25 05:18:21;;;;;;;68.30;31.42;;;3.30;99.90;;;;;;5035908;28;20026;-90
2021/11/25 05:20:47;;;;;;;68.43;33.30;;;3.30;99.90;;;;;;5054241;28;20028;-89
2021/11/25 05:23:14;;;;;;;75.90;38.15;;;3.30;99.90;;;;;;5054603;28;20067;-89
2021/11/25 05:25:39;;;;;;;71.63;34.67;;;3.30;99.90;;;;;;5052298;28;20096;-90
2021/11/25 05:28:05;;;;;;;77.90;36.55;;;3.30;99.90;;;;;;5038708;28;20031;-91
2021/11/25 05:30:31;;;;;;;82.65;38.05;;;3.40;99.90;;;;;;5033435;28;20029;-90
2021/11/25 05:32:59;;;;;;;77.72;37.75;;;3.40;99.90;;;;;;5035342;28;20036;-90
2021/11/25 05:35:24;;;;;;;76.78;38.30;;;3.50;99.90;;;;;;5027455;28;20116;-90
2021/11/25 05:37:50;;;;;;;76.57;37.20;;;3.50;99.90;;;;;;5019529;28;20060;-89
2021/11/25 05:40:16;;;;;;;78.03;38.20;;;3.50;99.90;;;;;;5052397;28;20053;-90
2021/11/25 05:42:42;;;;;;;78.07;39.08;;;3.50;99.90;;;;;;5038949;28;20049;-91
2021/11/25 05:45:09;;;;;;;80.30;38.22;;;3.60;99.90;;;;;;5030871;28;20038;-89
2021/11/25 05:47:37;;;;;;;79.13;37.83;;;3.70;99.90;;;;;;5023279;28;20052;-91
2021/11/25 05:50:05;;;;;;;83.22;39.45;;;3.70;99.90;;;;;;5030932;28;20159;-90
2021/11/25 05:52:31;;;;;;;81.65;38.10;;;3.70;99.90;;;;;;5029058;28;20124;-91
2021/11/25 05:54:57;;;;;;;84.40;38.38;;;3.70;99.90;;;;;;5032524;28;20170;-92
2021/11/25 05:57:22;;;;;;;77.28;37.08;;;3.70;99.90;;;;;;5025074;28;20053;-92
2021/11/25 05:59:48;;;;;;;88.45;40.00;;;3.70;99.90;;;;;;5024136;28;20045;-93
2021/11/25 06:02:15;;;;;;;83.57;38.97;;;3.80;99.90;;;;;;5027948;28;20094;-94
2021/11/25 06:04:41;;;;;;;84.28;40.55;;;3.80;99.90;;;;;;5026755;28;20096;-94
2021/11/25 06:07:06;;;;;;;91.30;41.45;;;3.80;99.90;;;;;;5038438;28;20021;-93
2021/11/25 06:09:32;;;;;;;89.45;41.85;;;3.80;99.90;;;;;;5032540;28;20029;-94
2021/11/25 06:11:57;;;;;;;85.45;40.15;;;3.80;99.90;;;;;;5042828;28;20029;-92
2021/11/25 06:14:23;;;;;;;74.13;38.63;;;3.80;99.90;;;;;;5040416;28;20511;-94
2021/11/25 06:16:49;;;;;;;83.30;41.58;;;3.80;99.90;;;;;;5039765;28;20025;-93
2021/11/25 06:19:14;;;;;;;85.88;40.97;;;3.80;99.90;;;;;;5037290;28;20090;-93
2021/11/25 06:21:40;;;;;;;84.88;41.85;;;3.80;99.90;;;;;;5025079;28;20096;-93
2021/11/25 06:24:05;;;;;;;82.65;41.25;;;3.90;99.90;;;;;;5049117;28;20084;-92
2021/11/25 06:26:31;;;;;;;77.88;38.60;;;4.00;99.90;;;;;;5044686;28;20562;-93
2021/11/25 06:28:57;;;;;;;74.35;37.10;;;4.00;99.90;;;;;;5038496;28;20025;-93
2021/11/25 06:31:22;;;;;;;80.72;40.15;;;3.90;99.90;;;;;;5050864;28;20159;-94
2021/11/25 06:33:48;;;;;;;80.38;40.78;;;3.90;99.90;;;;;;5054993;28;20352;-93
2021/11/25 06:36:14;;;;;;;76.50;38.58;;;3.90;99.90;;;;;;5031324;28;20025;-94
2021/11/25 06:38:41;;;;;;;79.63;40.15;;;3.90;99.90;;;;;;5034665;28;20028;-93
2021/11/25 06:41:07;;;;;;;76.05;39.33;;;3.80;99.90;;;;;;5048400;28;20523;-94
2021/11/25 06:43:37;;;;;;;81.15;39.72;;;4.00;99.90;;;;;;5057270;28;20278;-92
2021/11/25 06:46:03;;;;;;;75.85;38.08;;;4.00;99.90;;;;;;5035932;28;20040;-92
2021/11/25 06:48:29;;;;;;;76.35;37.88;;;4.00;99.90;;;;;;5031818;28;20084;-93
2021/11/25 06:50:54;;;;;;;71.47;37.00;;;4.10;99.90;;;;;;5031508;28;20020;-92
2021/11/25 06:53:21;;;;;;;71.95;38.53;;;4.10;99.90;;;;;;5036166;28;20583;-93
2021/11/25 06:55:49;;;;;;;74.20;37.75;;;4.00;99.90;;;;;;5054580;28;20032;-92
2021/11/25 06:58:14;;;;;;;78.82;37.88;;;4.00;99.90;;;;;;5039488;28;20029;-93
2021/11/25 07:00:40;;;;;;;74.40;40.30;;;4.00;99.90;;;;;;5027536;28;20029;-92
2021/11/25 07:03:06;;;;;;;75.20;38.00;;;3.90;99.90;;;;;;5044410;28;20036;-93
2021/11/25 07:05:31;;;;;;;68.97;37.60;;;3.90;99.90;;;;;;5042258;28;20120;-92
2021/11/25 07:08:00;;;;;;;71.43;37.53;;;3.90;99.90;;;;;;5038037;28;20065;-94
2021/11/25 07:10:27;;;;;;;70.72;37.38;;;3.90;99.90;;;;;;5041493;28;20028;-93
2021/11/25 07:12:53;;;;;;;76.25;36.58;;;3.90;99.90;;;;;;5040787;28;20041;-92
2021/11/25 07:15:23;;;;;;;74.28;38.30;;;3.90;99.90;;;;;;5039425;28;20120;-93
2021/11/25 07:17:49;;;;;;;77.15;36.42;;;3.90;99.90;;;;;;5039452;28;20079;-92
2021/11/25 07:20:20;;;;;;;71.35;37.08;;;4.00;99.90;;;;;;5039747;28;20032;-93
2021/11/25 07:22:50;;;;;;;70.82;37.40;;;4.00;99.90;;;;;;5038262;28;20033;-94
2021/11/25 07:25:17;;;;;;;69.57;38.03;;;4.00;99.90;;;;;;5055153;28;20120;-94
2021/11/25 07:27:43;;;;;;;71.35;37.10;;;4.00;99.90;;;;;;5039209;28;20380;-94
2021/11/25 07:30:12;;;;;;;65.40;35.30;;;4.00;99.90;;;;;;5040268;28;20029;-93
2021/11/25 07:32:37;;;;;;;69.50;36.88;;;4.00;99.90;;;;;;5029352;28;20044;-94
2021/11/25 07:35:05;;;;;;;79.18;39.90;;;4.00;99.90;;;;;;5031748;28;20024;-93
2021/11/25 07:37:31;;;;;;;73.45;38.67;;;4.00;99.90;;;;;;5037373;28;20488;-94
2021/11/25 07:39:57;;;;;;;72.13;39.80;;;4.00;99.90;;;;;;5036763;28;20036;-93
2021/11/25 07:42:22;;;;;;;71.80;37.90;;;4.00;99.90;;;;;;5036403;28;20155;-91
2021/11/25 07:44:48;;;;;;;75.25;38.92;;;4.00;99.90;;;;;;5037955;28;20037;-92
2021/11/25 07:47:14;;;;;;;63.88;36.58;;;4.10;99.90;;;;;;5039412;28;20055;-93
2021/11/25 07:49:39;;;;;;;67.80;36.30;;;4.10;99.90;;;;;;5039607;28;20055;-92
2021/11/25 07:52:06;;;;;;;69.03;39.03;;;4.20;99.90;;;;;;5040791;28;20549;-92
2021/11/25 07:54:32;;;;;;;70.43;38.83;;;4.20;99.90;;;;;;5032735;28;20124;-94
2021/11/25 07:57:00;;;;;;;65.43;38.42;;;4.20;99.90;;;;;;5038579;28;20060;-92
2021/11/25 07:59:26;;;;;;;64.47;37.22;;;4.30;99.90;;;;;;5036448;28;20045;-91
2021/11/25 08:01:53;;;;;;;63.47;37.20;;;4.30;99.90;;;;;;5045539;28;20127;-92
2021/11/25 08:04:19;;;;;;;68.72;37.70;;;4.30;99.90;;;;;;5054316;28;20504;-92
2021/11/25 08:06:44;;;;;;;63.25;37.58;;;4.40;99.90;;;;;;5037242;28;20036;-92
2021/11/25 08:09:10;;;;;;;68.55;37.85;;;4.30;99.90;;;;;;5033629;28;20029;-92
2021/11/25 08:11:36;;;;;;;62.63;36.47;;;4.30;99.90;;;;;;5043648;28;20377;-92
2021/11/25 08:14:02;;;;;;;69.00;38.03;;;4.30;99.90;;;;;;5038696;28;20040;-93
2021/11/25 08:16:27;;;;;;;64.30;37.05;;;4.30;99.90;;;;;;5054693;28;20037;-92
2021/11/25 08:18:53;;;;;;;77.72;39.85;;;4.30;99.90;;;;;;5044980;28;20033;-92
2021/11/25 08:21:19;;;;;;;67.82;38.35;;;4.40;99.90;;;;;;5040582;28;20033;-92
2021/11/25 08:23:45;;;;;;;69.75;40.03;;;4.40;99.90;;;;;;5049914;28;20021;-93
2021/11/25 08:26:10;;;;;;;68.78;38.83;;;4.40;99.90;;;;;;5037804;28;20033;-92
2021/11/25 08:28:38;;;;;;;66.03;38.08;;;4.50;99.90;;;;;;5023997;28;20025;-92
2021/11/25 08:31:03;;;;;;;67.55;38.55;;;4.50;99.90;;;;;;5028835;28;20568;-91
2021/11/25 08:33:29;;;;;;;63.95;37.53;;;4.60;99.90;;;;;;5034452;28;20071;-93
2021/11/25 08:35:56;;;;;;;63.88;37.92;;;4.60;99.90;;;;;;5043048;28;20028;-93
2021/11/25 08:38:22;;;;;;;61.53;36.45;;;4.60;99.90;;;;;;5043028;28;20068;-91
2021/11/25 08:40:47;;;;;;;60.28;37.28;;;4.70;99.90;;;;;;5042373;28;20025;-90
2021/11/25 08:43:13;;;;;;;61.13;37.42;;;4.70;99.90;;;;;;5036431;28;20116;-90
2021/11/25 08:45:38;;;;;;;57.25;34.58;;;4.80;99.90;;;;;;5038976;28;20154;-90
2021/11/25 08:48:04;;;;;;;58.15;35.88;;;4.80;99.90;;;;;;5031059;28;20020;-89
2021/11/25 08:50:30;;;;;;;57.58;36.53;;;4.80;99.90;;;;;;5032610;28;20029;-90
2021/11/25 08:52:57;;;;;;;56.00;35.55;;;4.80;99.90;;;;;;5022409;28;20033;-90
2021/11/25 08:55:23;;;;;;;58.03;37.00;;;4.80;99.90;;;;;;5031182;28;20027;-90
2021/11/25 08:57:48;;;;;;;60.42;37.42;;;4.80;99.90;;;;;;5042176;28;20116;-90
2021/11/25 09:00:15;;;;;;;58.45;36.65;;;4.80;99.90;;;;;;5055049;28;20105;-91
2021/11/25 09:02:41;;;;;;;58.80;35.85;;;4.80;99.90;;;;;;5040548;28;20090;-91
2021/11/25 09:05:09;;;;;;;58.97;36.58;;;4.90;99.90;;;;;;5053668;28;20477;-91
2021/11/25 09:07:35;;;;;;;58.10;35.50;;;4.90;99.90;;;;;;5041631;28;20388;-91
2021/11/25 09:10:00;;;;;;;57.65;35.20;;;4.90;99.90;;;;;;5042212;28;20021;-89
2021/11/25 09:12:26;;;;;;;58.33;36.33;;;4.90;99.90;;;;;;5040381;28;20033;-91
2021/11/25 09:14:51;;;;;;;56.00;33.78;;;4.90;99.90;;;;;;5045572;28;20089;-91
2021/11/25 09:17:17;;;;;;;55.20;34.97;;;4.90;99.90;;;;;;5048712;28;20066;-90
2021/11/25 09:19:42;;;;;;;52.70;33.38;;;5.00;99.90;;;;;;5043715;28;20469;-92
2021/11/25 09:22:08;;;;;;;49.97;32.97;;;5.00;99.90;;;;;;5045960;28;20511;-92
2021/11/25 09:24:34;;;;;;;57.05;35.10;;;5.00;99.90;;;;;;5043577;28;20021;-93
2021/11/25 09:27:03;;;;;;;53.58;33.47;;;5.00;99.90;;;;;;5042631;28;20028;-92
2021/11/25 09:29:28;;;;;;;48.58;33.03;;;5.00;99.90;;;;;;5039868;28;20369;-92
2021/11/25 09:31:54;;;;;;;50.63;32.22;;;5.10;99.90;;;;;;5058620;28;20048;-92
2021/11/25 09:34:19;;;;;;;51.10;33.53;;;5.00;99.90;;;;;;5043550;28;20505;-92
2021/11/25 09:36:45;;;;;;;53.42;33.33;;;5.00;99.90;;;;;;5055969;28;20082;-93
2021/11/25 09:39:10;;;;;;;49.67;31.10;;;5.00;99.90;;;;;;5044102;28;20488;-92
2021/11/25 09:41:37;;;;;;;48.53;30.38;;;5.00;99.90;;;;;;5043339;28;20488;-92
2021/11/25 09:44:04;;;;;;;47.85;31.85;;;5.00;99.90;;;;;;5044102;28;20032;-94
2021/11/25 09:46:29;;;;;;;51.80;31.50;;;4.90;99.90;;;;;;5039854;28;20488;-95
2021/11/25 09:48:56;;;;;;;52.70;32.90;;;4.90;99.90;;;;;;5056582;28;20040;-94
2021/11/25 09:51:24;;;;;;;54.20;34.25;;;4.90;99.90;;;;;;5038637;28;20021;-95
2021/11/25 09:53:50;;;;;;;54.22;33.42;;;4.90;99.90;;;;;;5038873;28;20048;-96
2021/11/25 09:56:16;;;;;;;53.30;33.17;;;4.90;99.90;;;;;;5038525;28;20040;-94
2021/11/25 09:58:41;;;;;;;55.78;34.65;;;4.90;99.90;;;;;;5038318;28;20029;-93
2021/11/25 10:01:14;;;;;;;56.78;34.47;;;4.90;99.90;;;;;;5022167;28;20029;-93
2021/11/25 10:03:42;;;;;;;;;;;5.00;99.90;;;;;;5053630;28;20037;-93
2021/11/25 10:06:08;;;;;;;50.38;31.67;;;5.00;99.90;;;;;;5050549;28;19959;-93
2021/11/25 10:08:35;;;;;;;57.85;33.40;;;5.00;99.90;;;;;;5037198;28;20060;-94
2021/11/25 10:11:06;;;;;;;53.10;32.95;;;5.10;99.90;;;;;;5021868;28;20022;-93
2021/11/25 10:14:02;;;;;;;56.83;32.28;;;5.10;99.90;;;;;;5040998;28;20033;-93
2021/11/25 10:16:33;;;;;;;56.10;31.60;;;5.10;99.90;;;;;;5078265;28;20055;-93
2021/11/25 10:19:15;;;;;;;57.80;33.20;;;5.10;99.90;;;;;;5056568;28;20028;-94
2021/11/25 10:21:47;;;;;;;59.17;33.55;;;5.10;99.90;;;;;;5039509;28;20028;-94
2021/11/25 10:24:13;;;;;;;66.55;34.38;;;5.10;99.90;;;;;;5057566;28;20087;-94
2021/11/25 10:26:38;;;;;;;60.20;33.85;;;5.20;99.90;;;;;;5047950;28;20041;-94
2021/11/25 10:29:08;;;;;;;57.70;32.78;;;5.20;99.90;;;;;;5038710;28;20025;-93
2021/11/25 10:31:36;;;;;;;61.20;33.70;;;5.20;99.90;;;;;;5020082;28;20075;-95
2021/11/25 10:34:13;;;;;;;60.22;35.05;;;5.30;99.90;;;;;;5026635;28;20037;-95
2021/11/25 10:42:10;;;;;;;68.70;36.97;;;5.40;99.90;;;;;;5058664;28;20059;-95
2021/11/25 10:44:38;;;;;;;69.65;36.92;;;5.50;99.90;;;;;;5067385;28;20104;-93
2021/11/25 10:47:13;;;;;;;67.88;37.53;;;5.50;99.90;;;;;;5062993;28;20047;-95
2021/11/25 10:49:48;;;;;;;65.90;36.50;;;5.60;99.90;;;;;;5039872;28;20024;-93
2021/11/25 10:52:39;;;;;;;60.42;35.80;;;5.70;99.90;;;;;;5038291;28;20036;-93
2021/11/25 10:55:16;;;;;;;67.53;36.22;;;5.70;99.90;;;;;;5026502;28;20102;-94
2021/11/25 10:57:53;;;;;;;71.90;37.00;;;5.80;99.90;;;;;;5040658;28;20040;-94
2021/11/25 11:00:25;;;;;;;71.40;37.97;;;5.90;99.90;;;;;;5040391;28;20513;-93
2021/11/25 11:03:29;;;;;;;69.22;37.95;;;5.90;99.90;;;;;;5058548;28;20484;-94
2021/11/25 11:06:01;;;;;;;74.47;40.75;;;6.00;99.90;;;;;;5038776;28;20037;-94
2021/11/25 11:08:39;;;;;;;75.82;40.60;;;6.10;99.90;;;;;;5037286;28;20581;-92
2021/11/25 11:11:07;;;;;;;72.38;39.70;;;6.10;99.90;;;;;;5041050;28;20036;-94
2021/11/25 11:13:40;;;;;;;82.30;42.20;;;6.10;99.90;;;;;;5056954;28;20036;-93
2021/11/25 11:16:24;;;;;;;71.28;39.72;;;6.20;99.90;;;;;;5039646;28;20021;-94
2021/11/25 11:19:01;;;;;;;81.18;42.92;;;6.30;99.90;;;;;;5056558;28;20146;-94
2021/11/25 11:21:42;;;;;;;74.97;41.03;;;6.40;99.90;;;;;;5040225;28;20424;-94
2021/11/25 11:24:10;;;;;;;74.40;41.25;;;6.40;99.90;;;;;;5021575;28;20108;-92
2021/11/25 11:26:40;;;;;;;75.63;41.42;;;6.50;99.90;;;;;;5035136;28;20033;-94
2021/11/25 11:29:07;;;;;;;83.97;41.38;;;6.50;99.90;;;;;;5036859;28;20035;-93
2021/11/25 11:31:34;;;;;;;83.32;43.92;;;6.60;99.90;;;;;;5029911;28;20033;-92
2021/11/25 11:34:02;;;;;;;80.60;43.45;;;6.60;99.90;;;;;;5030606;28;20029;-93
2021/11/25 11:36:29;;;;;;;83.20;46.13;;;6.60;99.90;;;;;;5031827;28;20397;-93
2021/11/25 11:38:58;;;;;;;77.53;42.25;;;6.70;99.90;;;;;;5047803;28;20035;-92
2021/11/25 11:41:29;;;;;;;82.47;44.65;;;6.70;99.90;;;;;;5030493;28;20037;-93
2021/11/25 11:44:03;;;;;;;82.57;45.17;;;6.80;99.90;;;;;;5030594;28;20480;-92
2021/11/25 11:46:35;;;;;;;86.13;43.78;;;6.80;99.90;;;;;;5030436;28;20035;-92
2021/11/25 11:49:07;;;;;;;83.00;42.55;;;6.80;99.90;;;;;;5031568;28;20025;-92
2021/11/25 11:51:34;;;;;;;;;;;6.70;99.90;;;;;;5029463;28;20056;-91
2021/11/25 11:54:01;;;;;;;82.10;41.38;;;6.70;99.90;;;;;;5028288;28;19959;-92
2021/11/25 11:56:36;;;;;;;82.18;44.08;;;6.70;99.90;;;;;;5031943;28;20028;-92
2021/11/25 11:59:03;;;;;;;84.15;44.55;;;6.70;99.90;;;;;;5047122;28;20028;-92
2021/11/25 12:01:30;;;;;;;91.03;45.85;;;6.80;99.90;;;;;;5028821;28;20413;-90
2021/11/25 12:03:58;;;;;;;95.15;47.42;;;6.90;99.90;;;;;;5031111;28;20039;-92
2021/11/25 12:06:42;;;;;;;89.75;45.92;;;6.90;99.90;;;;;;5027794;28;20067;-93
2021/11/25 12:09:34;;;;;;;88.15;46.72;;;6.90;99.90;;;;;;5048684;28;20033;-92
2021/11/25 12:12:15;;;;;;;87.80;46.17;;;7.00;99.90;;;;;;5032413;28;20027;-91
2021/11/25 12:15:19;;;;;;;90.93;45.38;;;7.10;99.90;;;;;;5025712;28;20431;-93
2021/11/25 12:17:45;;;;;;;86.25;44.00;;;7.20;99.90;;;;;;5043648;28;20032;-91
2021/11/25 12:20:32;;;;;;;91.40;44.95;;;7.20;99.90;;;;;;5045139;28;20033;-91
2021/11/25 12:22:59;;;;;;;86.10;43.90;;;7.30;99.90;;;;;;5051364;28;20088;-91
2021/11/25 12:25:29;;;;;;;88.70;45.85;;;7.40;99.90;;;;;;5031962;28;20055;-90
2021/11/25 12:28:27;;;;;;;91.07;45.17;;;7.40;99.90;;;;;;5025946;28;20030;-93
2021/11/25 12:31:07;;;;;;;89.32;45.90;;;7.50;99.90;;;;;;5028060;28;20053;-91
2021/11/25 12:33:42;;;;;;;94.18;45.17;;;7.50;99.90;;;;;;5029433;28;20041;-93
2021/11/25 12:36:09;;;;;;;89.75;41.30;;;7.60;99.90;;;;;;5032119;28;20025;-90
2021/11/25 12:38:38;;;;;;;84.47;40.67;;;7.60;99.90;;;;;;5036875;28;20115;-93
2021/11/25 12:41:11;;;;;;;93.43;44.13;;;7.60;99.90;;;;;;5024443;28;20381;-93
2021/11/25 12:43:41;;;;;;;87.18;43.53;;;7.60;99.90;;;;;;5050677;28;20037;-93
2021/11/25 12:46:11;;;;;;;81.10;41.20;;;7.70;99.90;;;;;;5029981;28;20058;-93
2021/11/25 12:48:48;;;;;;;80.68;41.13;;;7.70;99.90;;;;;;5027179;28;20065;-91